Time,TemperatureF,DewpointF,PressureIn,WindDirection,WindDirectionDegrees,WindSpeedMPH,WindSpeedGustMPH,Humidity,HourlyPrecipIn,Conditions,Clouds,dailyrainin,SoftwareType,DateUTC
2013-03-11 00:00:00,57.0,12.7,29.97,SW,225,7.6,14.5,17,0.00,,---,0.00,VWS V14.01,2013-03-11 04:00:00,
2013-03-11 00:05:00,56.8,12.5,29.97,NE,45,4.0,4.0,17,0.00,,---,0.00,VWS V14.01,2013-03-11 04:05:00,
2013-03-11 00:10:00,57.0,12.7,29.97,West,270,7.6,7.6,17,0.00,,---,0.00,VWS V14.01,2013-03-11 04:10:00,
2013-03-11 00:15:00,56.8,12.5,29.97,South,180,5.4,5.4,17,0.00,,---,0.00,VWS V14.01,2013-03-11 04:15:00,
2013-03-11 00:20:00,56.8,12.5,29.97,SW,225,8.1,8.1,17,0.00,,---,0.00,VWS V14.01,2013-03-11 04:20:00,
2013-03-11 00:25:00,56.7,12.4,29.94,South,180,5.8,6.7,17,0.00,,---,0.00,VWS V14.01,2013-03-11 04:25:00,
2013-03-11 00:30:00,56.8,12.5,29.94,South,180,12.3,12.3,17,0.00,,---,0.00,VWS V14.01,2013-03-11 04:30:00,
2013-03-11 00:35:00,56.8,12.5,29.94,SW,225,4.0,6.3,17,0.00,,---,0.00,VWS V14.01,2013-03-11 04:35:00,
2013-03-11 00:40:00,56.8,12.5,29.94,WSW,248,6.3,6.3,17,0.00,,---,0.00,VWS V14.01,2013-03-11 04:40:00,
2013-03-11 00:45:00,56.8,12.5,29.94,SSE,158,8.7,10.1,17,0.00,,---,0.00,VWS V14.01,2013-03-11 04:45:00,
2013-03-11 00:50:00,56.7,12.4,29.94,South,180,9.6,9.6,17,0.00,,---,0.00,VWS V14.01,2013-03-11 04:50:00,
2013-03-11 00:55:00,56.8,12.5,29.94,South,180,3.6,3.6,17,0.00,,---,0.00,VWS V14.01,2013-03-11 04:55:00,
2013-03-11 01:00:00,57.0,12.7,29.94,South,180,4.0,4.9,17,0.00,,---,0.00,VWS V14.01,2013-03-11 05:00:00,
2013-03-11 01:05:00,56.8,12.5,29.94,SSE,158,10.5,10.5,17,0.00,,---,0.00,VWS V14.01,2013-03-11 05:05:00,
2013-03-11 01:10:00,57.0,12.7,29.94,SE,135,8.1,10.1,17,0.00,,---,0.00,VWS V14.01,2013-03-11 05:10:00,
2013-03-11 01:15:00,57.0,12.7,29.94,SW,225,3.1,7.6,17,0.00,,---,0.00,VWS V14.01,2013-03-11 05:15:00,
2013-03-11 01:20:00,56.8,12.5,29.94,South,180,3.6,7.2,17,0.00,,---,0.00,VWS V14.01,2013-03-11 05:20:00,
2013-03-11 01:25:00,56.7,12.4,29.94,SW,225,10.1,10.1,17,0.00,,---,0.00,VWS V14.01,2013-03-11 05:25:00,
2013-03-11 01:30:00,56.7,12.4,29.94,East,90,7.2,7.2,17,0.00,,---,0.00,VWS V14.01,2013-03-11 05:30:00,
2013-03-11 01:35:00,56.7,12.4,29.94,SW,225,6.3,6.3,17,0.00,,---,0.00,VWS V14.01,2013-03-11 05:35:00,
2013-03-11 01:40:00,56.5,12.2,29.94,SW,225,5.4,5.8,17,0.00,,---,0.00,VWS V14.01,2013-03-11 05:40:00,
2013-03-11 01:45:00,56.5,12.2,29.94,SW,225,4.9,6.3,17,0.00,,---,0.00,VWS V14.01,2013-03-11 05:45:00,
2013-03-11 01:50:00,56.3,12.1,29.94,SE,135,7.2,7.2,17,0.00,,---,0.00,VWS V14.01,2013-03-11 05:50:00,
2013-03-11 01:55:00,56.3,12.1,29.94,ENE,68,11.0,11.0,17,0.00,,---,0.00,VWS V14.01,2013-03-11 05:55:00,
2013-03-11 02:00:00,56.1,11.9,29.94,SSW,202,10.1,10.1,17,0.00,,---,0.00,VWS V14.01,2013-03-11 06:00:00,
2013-03-11 02:05:00,55.9,11.8,29.94,SSW,202,5.4,5.4,17,0.00,,---,0.00,VWS V14.01,2013-03-11 06:05:00,
2013-03-11 02:10:00,55.9,11.8,29.94,South,180,8.3,9.6,17,0.00,,---,0.00,VWS V14.01,2013-03-11 06:10:00,
2013-03-11 02:15:00,55.8,11.6,29.94,SSW,202,4.9,4.9,17,0.00,,---,0.00,VWS V14.01,2013-03-11 06:15:00,
2013-03-11 02:20:00,55.8,11.6,29.94,SW,225,8.3,8.3,17,0.00,,---,0.00,VWS V14.01,2013-03-11 06:20:00,
2013-03-11 02:25:00,55.8,11.6,29.94,South,180,8.7,8.7,17,0.00,,---,0.00,VWS V14.01,2013-03-11 06:25:00,
2013-03-11 02:30:00,55.6,11.5,29.94,SW,225,4.0,5.4,17,0.00,,---,0.00,VWS V14.01,2013-03-11 06:30:00,
2013-03-11 02:35:00,55.8,11.6,29.94,South,180,4.9,7.6,17,0.00,,---,0.00,VWS V14.01,2013-03-11 06:35:00,
2013-03-11 02:40:00,55.8,11.6,29.94,SSE,158,6.3,8.1,17,0.00,,---,0.00,VWS V14.01,2013-03-11 06:40:00,
2013-03-11 02:45:00,55.9,11.8,29.94,SW,225,8.7,8.7,17,0.00,,---,0.00,VWS V14.01,2013-03-11 06:45:00,
2013-03-11 02:50:00,55.8,11.6,29.94,SW,225,6.3,6.3,17,0.00,,---,0.00,VWS V14.01,2013-03-11 06:50:00,
2013-03-11 02:55:00,55.8,11.6,29.94,SW,225,6.7,6.7,17,0.00,,---,0.00,VWS V14.01,2013-03-11 06:55:00,
2013-03-11 03:00:00,55.8,11.6,29.94,SW,225,5.8,5.8,17,0.00,,---,0.00,VWS V14.01,2013-03-11 07:00:00,
2013-03-11 03:05:00,55.8,11.6,29.94,SE,135,6.3,6.3,17,0.00,,---,0.00,VWS V14.01,2013-03-11 07:05:00,
2013-03-11 03:10:00,55.6,11.5,29.91,SE,135,9.6,13.6,17,0.00,,---,0.00,VWS V14.01,2013-03-11 07:10:00,
2013-03-11 03:15:00,55.8,11.6,29.91,SSW,202,5.8,6.3,17,0.00,,---,0.00,VWS V14.01,2013-03-11 07:15:00,
2013-03-11 03:20:00,55.8,11.6,29.91,South,180,8.1,8.1,17,0.00,,---,0.00,VWS V14.01,2013-03-11 07:20:00,
2013-03-11 03:25:00,55.8,11.6,29.94,South,180,10.1,11.9,17,0.00,,---,0.00,VWS V14.01,2013-03-11 07:25:00,
2013-03-11 03:30:00,55.8,11.6,29.94,SW,225,11.9,11.9,17,0.00,,---,0.00,VWS V14.01,2013-03-11 07:30:00,
2013-03-11 03:35:00,55.8,11.6,29.94,SW,225,10.1,10.1,17,0.00,,---,0.00,VWS V14.01,2013-03-11 07:35:00,
2013-03-11 03:40:00,55.8,11.6,29.94,South,180,8.7,8.7,17,0.00,,---,0.00,VWS V14.01,2013-03-11 07:40:00,
2013-03-11 03:45:00,55.8,11.6,29.94,SSW,202,5.4,5.4,17,0.00,,---,0.00,VWS V14.01,2013-03-11 07:45:00,
2013-03-11 03:50:00,55.8,11.6,29.94,South,180,7.6,7.6,17,0.00,,---,0.00,VWS V14.01,2013-03-11 07:50:00,
2013-03-11 03:55:00,55.6,11.5,29.94,South,180,4.0,4.0,17,0.00,,---,0.00,VWS V14.01,2013-03-11 07:55:00,
2013-03-11 04:00:00,55.6,11.5,29.94,South,180,5.8,5.8,17,0.00,,---,0.00,VWS V14.01,2013-03-11 08:00:00,
2013-03-11 04:05:00,55.2,12.5,29.94,South,180,3.6,4.0,18,0.00,,---,0.00,VWS V14.01,2013-03-11 08:05:00,
2013-03-11 04:10:00,55.0,12.3,29.91,South,180,8.1,8.1,18,0.00,,---,0.00,VWS V14.01,2013-03-11 08:10:00,
2013-03-11 04:15:00,55.0,12.3,29.91,West,270,2.7,4.9,18,0.00,,---,0.00,VWS V14.01,2013-03-11 08:15:00,
2013-03-11 04:20:00,55.0,12.3,29.91,SE,135,6.3,6.3,18,0.00,,---,0.00,VWS V14.01,2013-03-11 08:20:00,
2013-03-11 04:25:00,55.0,12.3,29.91,SW,225,7.2,7.2,18,0.00,,---,0.00,VWS V14.01,2013-03-11 08:25:00,
2013-03-11 04:30:00,55.0,12.3,29.91,South,180,4.0,4.0,18,0.00,,---,0.00,VWS V14.01,2013-03-11 08:30:00,
2013-03-11 04:35:00,55.0,12.3,29.91,West,270,2.7,3.6,18,0.00,,---,0.00,VWS V14.01,2013-03-11 08:35:00,
2013-03-11 04:40:00,54.9,12.2,29.91,SW,225,4.9,6.3,18,0.00,,---,0.00,VWS V14.01,2013-03-11 08:40:00,
2013-03-11 04:45:00,54.9,12.2,29.91,SSW,202,4.0,4.0,18,0.00,,---,0.00,VWS V14.01,2013-03-11 08:45:00,
2013-03-11 04:50:00,54.9,12.2,29.91,SSE,158,5.4,8.7,18,0.00,,---,0.00,VWS V14.01,2013-03-11 08:50:00,
2013-03-11 04:55:00,54.9,12.2,29.91,SW,225,5.4,5.4,18,0.00,,---,0.00,VWS V14.01,2013-03-11 08:55:00,
2013-03-11 05:00:00,54.9,12.2,29.91,West,270,8.1,8.1,18,0.00,,---,0.00,VWS V14.01,2013-03-11 09:00:00,
2013-03-11 05:05:00,54.9,12.2,29.91,SSE,158,8.7,10.5,18,0.00,,---,0.00,VWS V14.01,2013-03-11 09:05:00,
2013-03-11 05:10:00,55.0,12.3,29.91,SW,225,3.6,6.3,18,0.00,,---,0.00,VWS V14.01,2013-03-11 09:10:00,
2013-03-11 05:15:00,54.9,12.2,29.91,South,180,8.3,8.3,18,0.00,,---,0.00,VWS V14.01,2013-03-11 09:15:00,
2013-03-11 05:20:00,54.9,12.2,29.91,South,180,4.9,6.7,18,0.00,,---,0.00,VWS V14.01,2013-03-11 09:20:00,
2013-03-11 05:25:00,54.9,12.2,29.91,SSW,202,2.7,5.4,18,0.00,,---,0.00,VWS V14.01,2013-03-11 09:25:00,
2013-03-11 05:30:00,54.7,12.0,29.91,SW,225,2.7,3.1,18,0.00,,---,0.00,VWS V14.01,2013-03-11 09:30:00,
2013-03-11 05:35:00,54.7,12.0,29.91,SSE,158,5.4,7.2,18,0.00,,---,0.00,VWS V14.01,2013-03-11 09:35:00,
2013-03-11 05:40:00,54.7,12.0,29.91,SW,225,6.3,8.7,18,0.00,,---,0.00,VWS V14.01,2013-03-11 09:40:00,
2013-03-11 05:45:00,54.5,11.9,29.91,SW,225,3.6,4.0,18,0.00,,---,0.00,VWS V14.01,2013-03-11 09:45:00,
2013-03-11 05:50:00,54.3,11.7,29.91,SW,225,3.1,3.6,18,0.00,,---,0.00,VWS V14.01,2013-03-11 09:50:00,
2013-03-11 05:55:00,54.5,11.9,29.91,SW,225,3.1,3.1,18,0.00,,---,0.00,VWS V14.01,2013-03-11 09:55:00,
2013-03-11 06:00:00,54.5,11.9,29.91,South,180,7.6,7.6,18,0.00,,---,0.00,VWS V14.01,2013-03-11 10:00:00,
2013-03-11 06:05:00,54.5,11.9,29.91,SW,225,5.4,8.1,18,0.00,,---,0.00,VWS V14.01,2013-03-11 10:05:00,
2013-03-11 06:10:00,54.5,11.9,29.91,ESE,112,6.7,6.7,18,0.00,,---,0.00,VWS V14.01,2013-03-11 10:10:00,
2013-03-11 06:15:00,54.7,12.0,29.91,SW,225,3.1,4.9,18,0.00,,---,0.00,VWS V14.01,2013-03-11 10:15:00,
2013-03-11 06:20:00,54.9,12.2,29.91,SSW,202,5.4,6.3,18,0.00,,---,0.00,VWS V14.01,2013-03-11 10:20:00,
2013-03-11 06:25:00,54.9,12.2,29.94,SE,135,4.9,4.9,18,0.00,,---,0.00,VWS V14.01,2013-03-11 10:25:00,
2013-03-11 06:30:00,54.9,12.2,29.94,SSW,202,3.1,3.1,18,0.00,,---,0.00,VWS V14.01,2013-03-11 10:30:00,
2013-03-11 06:35:00,54.9,12.2,29.94,SE,135,5.4,5.4,18,0.00,,---,0.00,VWS V14.01,2013-03-11 10:35:00,
2013-03-11 06:40:00,54.9,12.2,29.91,South,180,0.0,0.0,18,0.00,,---,0.00,VWS V14.01,2013-03-11 10:40:00,
2013-03-11 06:45:00,54.5,11.9,29.91,South,180,3.6,3.6,18,0.00,,---,0.00,VWS V14.01,2013-03-11 10:45:00,
2013-03-11 06:50:00,54.3,11.7,29.91,South,180,7.6,7.6,18,0.00,,---,0.00,VWS V14.01,2013-03-11 10:50:00,
2013-03-11 06:55:00,54.5,11.9,29.94,South,180,4.5,4.5,18,0.00,,---,0.00,VWS V14.01,2013-03-11 10:55:00,
2013-03-11 07:00:00,54.3,11.7,29.94,SSW,202,3.1,3.1,18,0.00,,---,0.00,VWS V14.01,2013-03-11 11:00:00,
2013-03-11 07:05:00,54.3,11.7,29.94,SW,225,5.4,5.4,18,0.00,,---,0.00,VWS V14.01,2013-03-11 11:05:00,
2013-03-11 07:10:00,54.3,11.7,29.94,East,90,3.1,5.4,18,0.00,,---,0.00,VWS V14.01,2013-03-11 11:10:00,
2013-03-11 07:15:00,54.3,11.7,29.94,South,180,3.6,3.6,18,0.00,,---,0.00,VWS V14.01,2013-03-11 11:15:00,
2013-03-11 07:20:00,54.1,11.6,29.94,SE,135,4.0,4.0,18,0.00,,---,0.00,VWS V14.01,2013-03-11 11:20:00,
2013-03-11 07:25:00,54.0,11.4,29.94,SW,225,5.8,5.8,18,0.00,,---,0.00,VWS V14.01,2013-03-11 11:25:00,
2013-03-11 07:30:00,54.0,11.4,29.94,SW,225,2.2,3.6,18,0.00,,---,0.00,VWS V14.01,2013-03-11 11:30:00,
2013-03-11 07:35:00,53.8,11.3,29.94,South,180,5.4,5.4,18,0.00,,---,0.00,VWS V14.01,2013-03-11 11:35:00,
2013-03-11 07:40:00,53.8,11.3,29.94,SW,225,3.1,4.9,18,0.00,,---,0.00,VWS V14.01,2013-03-11 11:40:00,
2013-03-11 07:45:00,53.8,11.3,29.94,South,180,3.1,4.9,18,0.00,,---,0.00,VWS V14.01,2013-03-11 11:45:00,
2013-03-11 07:50:00,54.0,11.4,29.94,SW,225,3.1,6.3,18,0.00,,---,0.00,VWS V14.01,2013-03-11 11:50:00,
2013-03-11 07:55:00,54.0,11.4,29.94,SSW,202,8.7,8.7,18,0.00,,---,0.00,VWS V14.01,2013-03-11 11:55:00,
2013-03-11 08:00:00,54.3,11.7,29.94,SW,225,3.1,3.1,18,0.00,,---,0.00,VWS V14.01,2013-03-11 12:00:00,
2013-03-11 08:05:00,54.3,11.7,29.94,SE,135,2.7,3.6,18,0.00,,---,0.00,VWS V14.01,2013-03-11 12:05:00,
2013-03-11 08:10:00,54.5,11.9,29.94,SSE,158,5.8,5.8,18,0.00,,---,0.00,VWS V14.01,2013-03-11 12:10:00,
2013-03-11 08:15:00,54.5,11.9,29.94,SW,225,4.0,4.0,18,0.00,,---,0.00,VWS V14.01,2013-03-11 12:15:00,
2013-03-11 08:20:00,54.5,11.9,29.94,SW,225,4.0,4.0,18,0.00,,---,0.00,VWS V14.01,2013-03-11 12:20:00,
2013-03-11 08:25:00,54.5,11.9,29.94,SW,225,2.7,6.3,18,0.00,,---,0.00,VWS V14.01,2013-03-11 12:25:00,
2013-03-11 08:30:00,54.7,12.0,29.94,SW,225,6.3,6.3,18,0.00,,---,0.00,VWS V14.01,2013-03-11 12:30:00,
2013-03-11 08:35:00,54.7,12.0,29.94,SW,225,2.7,7.2,18,0.00,,---,0.00,VWS V14.01,2013-03-11 12:35:00,
2013-03-11 08:40:00,54.9,12.2,29.94,SW,225,3.1,3.1,18,0.00,,---,0.00,VWS V14.01,2013-03-11 12:40:00,
2013-03-11 08:45:00,54.9,12.2,29.94,SW,225,2.7,3.1,18,0.00,,---,0.00,VWS V14.01,2013-03-11 12:45:00,
2013-03-11 08:50:00,55.0,12.3,29.94,SW,225,5.4,5.4,18,0.00,,---,0.00,VWS V14.01,2013-03-11 12:50:00,
2013-03-11 08:55:00,55.4,11.3,29.94,SSW,202,8.3,8.3,17,0.00,,---,0.00,VWS V14.01,2013-03-11 12:55:00,
2013-03-11 09:00:00,55.4,11.3,29.94,SSW,202,2.7,4.0,17,0.00,,---,0.00,VWS V14.01,2013-03-11 13:00:00,
2013-03-11 09:05:00,55.8,11.6,29.94,WSW,248,4.9,6.7,17,0.00,,---,0.00,VWS V14.01,2013-03-11 13:05:00,
2013-03-11 09:10:00,55.9,11.8,29.94,SW,225,7.6,7.6,17,0.00,,---,0.00,VWS V14.01,2013-03-11 13:10:00,
2013-03-11 09:15:00,56.1,11.9,29.94,West,270,3.1,4.0,17,0.00,,---,0.00,VWS V14.01,2013-03-11 13:15:00,
2013-03-11 09:20:00,56.3,12.1,29.94,South,180,3.6,5.8,17,0.00,,---,0.00,VWS V14.01,2013-03-11 13:20:00,
2013-03-11 09:25:00,56.3,12.1,29.94,South,180,3.6,3.6,17,0.00,,---,0.00,VWS V14.01,2013-03-11 13:25:00,
2013-03-11 09:30:00,56.3,12.1,29.94,South,180,2.7,3.6,17,0.00,,---,0.00,VWS V14.01,2013-03-11 13:30:00,
2013-03-11 09:35:00,56.1,11.9,29.94,West,270,2.7,2.7,17,0.00,,---,0.00,VWS V14.01,2013-03-11 13:35:00,
2013-03-11 09:40:00,56.1,11.9,29.94,South,180,4.5,7.6,17,0.00,,---,0.00,VWS V14.01,2013-03-11 13:40:00,
2013-03-11 09:45:00,56.1,11.9,29.94,SW,225,4.9,4.9,17,0.00,,---,0.00,VWS V14.01,2013-03-11 13:45:00,
2013-03-11 09:50:00,56.1,11.9,29.94,SSW,202,3.1,3.6,17,0.00,,---,0.00,VWS V14.01,2013-03-11 13:50:00,
2013-03-11 09:55:00,56.1,11.9,29.94,South,180,4.9,5.4,17,0.00,,---,0.00,VWS V14.01,2013-03-11 13:55:00,
2013-03-11 10:00:00,56.1,11.9,29.94,SW,225,4.0,10.1,17,0.00,,---,0.00,VWS V14.01,2013-03-11 14:00:00,
2013-03-11 10:05:00,55.9,11.8,29.94,West,270,3.6,7.6,17,0.00,,---,0.00,VWS V14.01,2013-03-11 14:05:00,
2013-03-11 10:10:00,55.9,11.8,29.94,SSW,202,4.0,5.4,17,0.00,,---,0.00,VWS V14.01,2013-03-11 14:10:00,
2013-03-11 10:15:00,55.8,11.6,29.94,South,180,4.9,4.9,17,0.00,,---,0.00,VWS V14.01,2013-03-11 14:15:00,
2013-03-11 10:20:00,55.4,11.3,29.94,SW,225,7.2,8.3,17,0.00,,---,0.00,VWS V14.01,2013-03-11 14:20:00,
2013-03-11 10:25:00,55.4,11.3,29.94,SW,225,3.1,4.9,17,0.00,,---,0.00,VWS V14.01,2013-03-11 14:25:00,
2013-03-11 10:30:00,55.4,11.3,29.94,SW,225,6.3,7.2,17,0.00,,---,0.00,VWS V14.01,2013-03-11 14:30:00,
2013-03-11 10:35:00,55.4,11.3,29.94,SE,135,4.0,5.8,17,0.00,,---,0.00,VWS V14.01,2013-03-11 14:35:00,
2013-03-11 10:40:00,55.6,11.5,29.91,South,180,4.0,4.0,17,0.00,,---,0.00,VWS V14.01,2013-03-11 14:40:00,
2013-03-11 10:45:00,55.6,11.5,29.91,South,180,3.1,5.8,17,0.00,,---,0.00,VWS V14.01,2013-03-11 14:45:00,
2013-03-11 10:50:00,55.8,11.6,29.91,SE,135,4.9,4.9,17,0.00,,---,0.00,VWS V14.01,2013-03-11 14:50:00,
2013-03-11 10:55:00,55.9,11.8,29.91,WNW,292,6.3,6.3,17,0.00,,---,0.00,VWS V14.01,2013-03-11 14:55:00,
2013-03-11 11:00:00,56.1,11.9,29.91,SW,225,3.1,6.7,17,0.00,,---,0.00,VWS V14.01,2013-03-11 15:00:00,
2013-03-11 11:05:00,56.3,12.1,29.91,SSW,202,4.0,5.4,17,0.00,,---,0.00,VWS V14.01,2013-03-11 15:05:00,
2013-03-11 11:10:00,56.5,12.2,29.91,South,180,7.6,7.6,17,0.00,,---,0.00,VWS V14.01,2013-03-11 15:10:00,
2013-03-11 11:15:00,56.7,12.4,29.91,SW,225,4.9,6.3,17,0.00,,---,0.00,VWS V14.01,2013-03-11 15:15:00,
2013-03-11 11:20:00,56.7,12.4,29.91,South,180,3.6,4.9,17,0.00,,---,0.00,VWS V14.01,2013-03-11 15:20:00,
2013-03-11 11:25:00,56.7,12.4,29.91,SW,225,6.3,7.6,17,0.00,,---,0.00,VWS V14.01,2013-03-11 15:25:00,
2013-03-11 11:30:00,56.8,12.5,29.91,South,180,3.6,8.7,17,0.00,,---,0.00,VWS V14.01,2013-03-11 15:30:00,
2013-03-11 11:35:00,57.2,12.8,29.91,South,180,2.7,2.7,17,0.00,,---,0.00,VWS V14.01,2013-03-11 15:35:00,
2013-03-11 11:40:00,57.4,12.9,29.91,SW,225,4.5,7.2,17,0.00,,---,0.00,VWS V14.01,2013-03-11 15:40:00,
2013-03-11 11:45:00,57.6,13.1,29.91,SW,225,3.1,7.6,17,0.00,,---,0.00,VWS V14.01,2013-03-11 15:45:00,
2013-03-11 11:50:00,57.7,13.2,29.91,SSW,202,11.0,11.0,17,0.00,,---,0.00,VWS V14.01,2013-03-11 15:50:00,
2013-03-11 11:56:00,57.9,13.4,29.88,SW,225,3.1,4.0,17,0.00,,---,0.00,VWS V14.01,2013-03-11 15:56:00,
2013-03-11 12:01:00,57.9,13.4,29.88,South,180,6.3,7.6,17,0.00,,---,0.00,VWS V14.01,2013-03-11 16:01:00,
2013-03-11 12:06:00,58.1,13.5,29.88,SSW,202,2.7,6.7,17,0.00,,---,0.00,VWS V14.01,2013-03-11 16:06:00,
2013-03-11 12:11:00,58.3,13.7,29.88,SW,225,4.0,4.9,17,0.00,,---,0.00,VWS V14.01,2013-03-11 16:11:00,
2013-03-11 12:16:00,58.5,13.8,29.88,SW,225,4.9,8.1,17,0.00,,---,0.00,VWS V14.01,2013-03-11 16:16:00,
2013-03-11 12:21:00,58.5,13.8,29.88,WSW,248,6.3,6.3,17,0.00,,---,0.00,VWS V14.01,2013-03-11 16:21:00,
2013-03-11 12:26:00,58.5,13.8,29.88,SW,225,7.2,7.2,17,0.00,,---,0.00,VWS V14.01,2013-03-11 16:26:00,
2013-03-11 12:31:00,58.6,14.0,29.88,SW,225,5.4,8.3,17,0.00,,---,0.00,VWS V14.01,2013-03-11 16:31:00,
2013-03-11 12:36:00,58.6,14.0,29.88,East,90,7.2,8.3,17,0.00,,---,0.00,VWS V14.01,2013-03-11 16:36:00,
2013-03-11 12:41:00,58.8,14.1,29.88,SSE,158,5.4,8.1,17,0.00,,---,0.00,VWS V14.01,2013-03-11 16:41:00,
2013-03-11 12:46:00,59.0,14.3,29.88,South,180,7.6,10.1,17,0.00,,---,0.00,VWS V14.01,2013-03-11 16:46:00,
2013-03-11 12:51:00,59.0,14.3,29.88,SE,135,3.6,7.2,17,0.00,,---,0.00,VWS V14.01,2013-03-11 16:51:00,
2013-03-11 12:56:00,59.2,14.4,29.85,South,180,5.8,7.2,17,0.00,,---,0.00,VWS V14.01,2013-03-11 16:56:00,
2013-03-11 13:01:00,59.4,14.6,29.85,SW,225,7.6,7.6,17,0.00,,---,0.00,VWS V14.01,2013-03-11 17:01:00,
2013-03-11 13:06:00,59.4,14.6,29.85,South,180,8.1,14.5,17,0.00,,---,0.00,VWS V14.01,2013-03-11 17:06:00,
2013-03-11 13:11:00,59.5,14.7,29.82,SW,225,5.8,7.6,17,0.00,,---,0.00,VWS V14.01,2013-03-11 17:11:00,
2013-03-11 13:16:00,59.7,14.9,29.82,SW,225,7.2,7.2,17,0.00,,---,0.00,VWS V14.01,2013-03-11 17:16:00,
2013-03-11 13:21:00,59.7,14.9,29.82,SW,225,2.7,4.9,17,0.00,,---,0.00,VWS V14.01,2013-03-11 17:21:00,
2013-03-11 13:26:00,59.9,15.0,29.85,South,180,8.3,8.3,17,0.00,,---,0.00,VWS V14.01,2013-03-11 17:26:00,
2013-03-11 13:31:00,60.1,15.1,29.85,South,180,4.9,11.0,17,0.00,,---,0.00,VWS V14.01,2013-03-11 17:31:00,
2013-03-11 13:36:00,60.3,15.3,29.85,SSW,202,6.7,10.5,17,0.00,,---,0.00,VWS V14.01,2013-03-11 17:36:00,
2013-03-11 13:41:00,60.1,15.1,29.85,SW,225,4.0,8.3,17,0.00,,---,0.00,VWS V14.01,2013-03-11 17:41:00,
2013-03-11 13:46:00,60.1,15.1,29.85,SW,225,4.0,8.1,17,0.00,,---,0.00,VWS V14.01,2013-03-11 17:46:00,
2013-03-11 13:51:00,59.9,15.0,29.85,South,180,6.3,6.3,17,0.00,,---,0.00,VWS V14.01,2013-03-11 17:51:00,
2013-03-11 13:56:00,60.1,15.1,29.82,WSW,248,7.6,8.7,17,0.00,,---,0.00,VWS V14.01,2013-03-11 17:56:00,
2013-03-11 14:01:00,60.1,15.1,29.82,South,180,4.9,7.2,17,0.00,,---,0.00,VWS V14.01,2013-03-11 18:01:00,
2013-03-11 14:06:00,60.1,15.1,29.82,West,270,3.1,4.9,17,0.00,,---,0.00,VWS V14.01,2013-03-11 18:06:00,
2013-03-11 14:11:00,60.1,15.1,29.82,SE,135,9.6,9.6,17,0.00,,---,0.00,VWS V14.01,2013-03-11 18:11:00,
2013-03-11 14:16:00,60.1,15.1,29.82,WSW,248,4.0,6.7,17,0.00,,---,0.00,VWS V14.01,2013-03-11 18:16:00,
2013-03-11 14:21:00,59.9,15.0,29.82,SW,225,2.2,5.8,17,0.00,,---,0.00,VWS V14.01,2013-03-11 18:21:00,
2013-03-11 14:26:00,59.9,15.0,29.82,SW,225,3.6,4.9,17,0.00,,---,0.00,VWS V14.01,2013-03-11 18:26:00,
2013-03-11 14:31:00,59.9,15.0,29.82,SSW,202,2.7,6.3,17,0.00,,---,0.00,VWS V14.01,2013-03-11 18:31:00,
2013-03-11 14:36:00,59.7,14.9,29.82,NW,315,3.1,3.6,17,0.00,,---,0.00,VWS V14.01,2013-03-11 18:36:00,
2013-03-11 14:41:00,58.8,14.1,29.79,SW,225,5.8,6.7,17,0.00,,---,0.00,VWS V14.01,2013-03-11 18:41:00,
2013-03-11 14:46:00,58.3,13.7,29.79,South,180,7.2,7.2,17,0.00,,---,0.00,VWS V14.01,2013-03-11 18:46:00,
2013-03-11 14:51:00,58.1,13.5,29.79,West,270,3.1,3.1,17,0.00,,---,0.00,VWS V14.01,2013-03-11 18:51:00,
2013-03-11 14:58:00,57.4,15.5,29.79,SW,225,4.5,13.2,19,0.00,,---,0.00,VWS V14.01,2013-03-11 18:58:00,
2013-03-11 15:03:00,56.8,16.2,29.79,South,180,5.8,5.8,20,0.00,,---,0.00,VWS V14.01,2013-03-11 19:03:00,
2013-03-11 15:08:00,56.7,16.1,29.79,South,180,6.3,9.2,20,0.00,,---,0.00,VWS V14.01,2013-03-11 19:08:00,
2013-03-11 15:13:00,56.5,15.9,29.76,South,180,6.7,7.6,20,0.00,,---,0.00,VWS V14.01,2013-03-11 19:13:00,
2013-03-11 15:18:00,56.5,15.9,29.76,South,180,4.0,5.4,20,0.00,,---,0.00,VWS V14.01,2013-03-11 19:18:00,
2013-03-11 15:23:00,56.7,16.1,29.76,South,180,4.0,4.0,20,0.00,,---,0.00,VWS V14.01,2013-03-11 19:23:00,
2013-03-11 15:28:00,57.2,15.3,29.76,South,180,4.9,5.4,19,0.00,,---,0.00,VWS V14.01,2013-03-11 19:28:00,
2013-03-11 15:33:00,57.4,15.5,29.76,South,180,4.0,4.0,19,0.00,,---,0.00,VWS V14.01,2013-03-11 19:33:00,
2013-03-11 15:38:00,57.7,15.8,29.76,South,180,4.0,4.0,19,0.00,,---,0.00,VWS V14.01,2013-03-11 19:38:00,
2013-03-11 15:43:00,58.1,13.5,29.76,SW,225,5.8,5.8,17,0.00,,---,0.00,VWS V14.01,2013-03-11 19:43:00,
2013-03-11 15:48:00,58.5,13.8,29.76,South,180,8.7,8.7,17,0.00,,---,0.00,VWS V14.01,2013-03-11 19:48:00,
2013-03-11 15:53:00,58.6,14.0,29.76,SW,225,16.3,16.3,17,0.00,,---,0.00,VWS V14.01,2013-03-11 19:53:00,
2013-03-11 15:58:00,58.8,14.1,29.74,South,180,4.0,8.7,17,0.00,,---,0.00,VWS V14.01,2013-03-11 19:58:00,
2013-03-11 16:03:00,58.8,14.1,29.74,West,270,4.9,8.7,17,0.00,,---,0.00,VWS V14.01,2013-03-11 20:03:00,
2013-03-11 16:08:00,58.8,14.1,29.74,SW,225,8.1,12.8,17,0.00,,---,0.00,VWS V14.01,2013-03-11 20:08:00,
2013-03-11 16:13:00,58.8,14.1,29.76,WSW,248,3.6,4.9,17,0.00,,---,0.00,VWS V14.01,2013-03-11 20:13:00,
2013-03-11 16:18:00,58.5,13.8,29.76,West,270,6.3,9.6,17,0.00,,---,0.00,VWS V14.01,2013-03-11 20:18:00,
2013-03-11 16:23:00,58.6,14.0,29.76,SW,225,8.7,8.7,17,0.00,,---,0.00,VWS V14.01,2013-03-11 20:23:00,
2013-03-11 16:28:00,58.3,13.7,29.74,SW,225,8.7,8.7,17,0.00,,---,0.00,VWS V14.01,2013-03-11 20:28:00,
2013-03-11 16:33:00,58.1,13.5,29.74,SW,225,6.3,8.3,17,0.00,,---,0.00,VWS V14.01,2013-03-11 20:33:00,
2013-03-11 16:38:00,59.0,14.3,29.74,South,180,8.7,12.3,17,0.00,,---,0.00,VWS V14.01,2013-03-11 20:38:00,
2013-03-11 16:43:00,59.5,14.7,29.74,SW,225,4.9,4.9,17,0.00,,---,0.00,VWS V14.01,2013-03-11 20:43:00,
2013-03-11 16:48:00,60.1,15.1,29.74,SW,225,8.3,8.3,17,0.00,,---,0.00,VWS V14.01,2013-03-11 20:48:00,
2013-03-11 16:53:00,59.9,15.0,29.74,South,180,8.1,8.1,17,0.00,,---,0.00,VWS V14.01,2013-03-11 20:53:00,
2013-03-11 16:58:00,59.4,14.6,29.74,SW,225,2.7,7.6,17,0.00,,---,0.00,VWS V14.01,2013-03-11 20:58:00,
2013-03-11 17:03:00,59.0,14.3,29.74,SW,225,5.8,6.3,17,0.00,,---,0.00,VWS V14.01,2013-03-11 21:03:00,
2013-03-11 17:08:00,58.8,14.1,29.71,SW,225,8.7,8.7,17,0.00,,---,0.00,VWS V14.01,2013-03-11 21:08:00,
2013-03-11 17:14:00,57.9,13.4,29.71,SW,225,8.3,10.5,17,0.00,,---,0.00,VWS V14.01,2013-03-11 21:14:00,
2013-03-11 17:19:00,57.6,13.1,29.71,West,270,5.8,5.8,17,0.00,,---,0.00,VWS V14.01,2013-03-11 21:19:00,
2013-03-11 17:24:00,57.4,12.9,29.71,ESE,112,3.1,8.3,17,0.00,,---,0.00,VWS V14.01,2013-03-11 21:24:00,
2013-03-11 17:29:00,57.0,16.4,29.71,NE,45,0.0,4.0,20,0.00,,---,0.00,VWS V14.01,2013-03-11 21:29:00,
2013-03-11 17:34:00,56.8,16.2,29.71,SW,225,5.4,6.7,20,0.00,,---,0.00,VWS V14.01,2013-03-11 21:34:00,
2013-03-11 17:39:00,57.0,16.4,29.68,SW,225,5.8,14.1,20,0.00,,---,0.00,VWS V14.01,2013-03-11 21:39:00,
2013-03-11 17:44:00,57.9,13.4,29.68,South,180,8.1,13.2,17,0.00,,---,0.00,VWS V14.01,2013-03-11 21:44:00,
2013-03-11 17:49:00,57.9,13.4,29.68,WNW,292,6.3,8.7,17,0.00,,---,0.00,VWS V14.01,2013-03-11 21:49:00,
2013-03-11 17:54:00,57.9,15.9,29.71,SE,135,4.9,16.8,19,0.00,,---,0.00,VWS V14.01,2013-03-11 21:54:00,
2013-03-11 17:59:00,57.2,15.3,29.71,WSW,248,5.4,8.7,19,0.00,,---,0.00,VWS V14.01,2013-03-11 21:59:00,
2013-03-11 18:04:00,56.3,21.0,29.71,SW,225,5.8,5.8,25,0.00,,---,0.00,VWS V14.01,2013-03-11 22:04:00,
2013-03-11 18:09:00,55.8,20.5,29.71,SE,135,3.6,11.0,25,0.00,,---,0.00,VWS V14.01,2013-03-11 22:09:00,
2013-03-11 18:14:00,55.0,21.7,29.71,East,90,4.9,6.3,27,0.00,,---,0.00,VWS V14.01,2013-03-11 22:14:00,
2013-03-11 18:19:00,54.7,22.2,29.71,SSW,202,7.6,12.8,28,0.00,,---,0.00,VWS V14.01,2013-03-11 22:19:00,
2013-03-11 18:24:00,54.5,22.1,29.68,SW,225,4.9,5.8,28,0.00,,---,0.00,VWS V14.01,2013-03-11 22:24:00,
2013-03-11 18:29:00,54.3,22.8,29.68,West,270,6.3,11.0,29,0.00,,---,0.00,VWS V14.01,2013-03-11 22:29:00,
2013-03-11 18:34:00,54.5,21.2,29.68,SSW,202,4.0,8.3,27,0.00,,---,0.00,VWS V14.01,2013-03-11 22:34:00,
2013-03-11 18:39:00,54.5,20.3,29.68,SW,225,4.0,4.0,26,0.00,,---,0.00,VWS V14.01,2013-03-11 22:39:00,
2013-03-11 18:44:00,54.1,20.0,29.68,SSE,158,4.5,10.5,26,0.00,,---,0.00,VWS V14.01,2013-03-11 22:44:00,
2013-03-11 18:49:00,54.0,20.8,29.68,SW,225,7.2,7.2,27,0.00,,---,0.00,VWS V14.01,2013-03-11 22:49:00,
2013-03-11 18:54:00,54.0,19.9,29.68,SW,225,12.3,12.3,26,0.00,,---,0.00,VWS V14.01,2013-03-11 22:54:00,
2013-03-11 18:59:00,54.0,19.9,29.68,South,180,12.8,12.8,26,0.00,,---,0.00,VWS V14.01,2013-03-11 22:59:00,
2013-03-11 19:04:00,54.1,19.1,29.68,SW,225,3.6,6.3,25,0.00,,---,0.00,VWS V14.01,2013-03-11 23:04:00,
2013-03-11 19:09:00,54.0,19.9,29.68,West,270,4.0,6.3,26,0.00,,---,0.00,VWS V14.01,2013-03-11 23:09:00,
2013-03-11 19:14:00,53.8,19.7,29.68,SW,225,3.6,3.6,26,0.00,,---,0.00,VWS V14.01,2013-03-11 23:14:00,
2013-03-11 19:19:00,53.8,18.8,29.68,South,180,5.4,5.4,25,0.00,,---,0.00,VWS V14.01,2013-03-11 23:19:00,
2013-03-11 19:24:00,54.0,17.0,29.68,SW,225,5.8,10.1,23,0.00,,---,0.00,VWS V14.01,2013-03-11 23:24:00,
2013-03-11 19:29:00,53.6,16.7,29.68,SW,225,5.4,7.2,23,0.00,,---,0.00,VWS V14.01,2013-03-11 23:29:00,
2013-03-11 19:34:00,53.4,16.6,29.68,SE,135,4.9,4.9,23,0.00,,---,0.00,VWS V14.01,2013-03-11 23:34:00,
2013-03-11 19:39:00,53.1,19.1,29.68,West,270,4.9,4.9,26,0.00,,---,0.00,VWS V14.01,2013-03-11 23:39:00,
2013-03-11 19:44:00,52.9,19.0,29.68,SE,135,5.8,5.8,26,0.00,,---,0.00,VWS V14.01,2013-03-11 23:44:00,
2013-03-11 19:49:00,52.5,18.6,29.68,SSE,158,7.6,7.6,26,0.00,,---,0.00,VWS V14.01,2013-03-11 23:49:00,
2013-03-11 19:54:00,52.0,19.1,29.68,SW,225,3.1,7.6,27,0.00,,---,0.00,VWS V14.01,2013-03-11 23:54:00,
2013-03-11 19:59:00,51.4,20.3,29.68,SW,225,5.4,5.4,29,0.00,,---,0.00,VWS V14.01,2013-03-11 23:59:00,
2013-03-11 20:04:00,51.3,20.9,29.68,South,180,6.7,7.6,30,0.00,,---,0.00,VWS V14.01,2013-03-12 00:04:00,
2013-03-11 20:09:00,51.1,20.8,29.68,West,270,5.4,10.5,30,0.00,,---,0.00,VWS V14.01,2013-03-12 00:09:00,
2013-03-11 20:14:00,51.1,21.5,29.68,South,180,8.7,8.7,31,0.00,,---,0.00,VWS V14.01,2013-03-12 00:14:00,
2013-03-11 20:19:00,50.9,22.1,29.68,West,270,4.5,8.1,32,0.00,,---,0.00,VWS V14.01,2013-03-12 00:19:00,
2013-03-11 20:24:00,50.7,22.7,29.68,SW,225,5.4,5.4,33,0.00,,---,0.00,VWS V14.01,2013-03-12 00:24:00,
2013-03-11 20:29:00,50.5,24.6,29.68,WSW,248,6.3,6.3,36,0.00,,---,0.00,VWS V14.01,2013-03-12 00:29:00,
2013-03-11 20:34:00,50.2,25.6,29.68,SW,225,4.0,7.2,38,0.00,,---,0.00,VWS V14.01,2013-03-12 00:34:00,
2013-03-11 20:39:00,50.0,26.0,29.71,SE,135,3.1,10.1,39,0.04,,---,0.04,VWS V14.01,2013-03-12 00:39:00,
2013-03-11 20:44:00,49.6,26.3,29.71,WSW,248,5.8,8.3,40,0.04,,---,0.04,VWS V14.01,2013-03-12 00:44:00,
2013-03-11 20:49:00,48.9,28.0,29.71,WSW,248,3.1,3.1,44,0.04,,---,0.04,VWS V14.01,2013-03-12 00:49:00,
2013-03-11 20:54:00,47.8,30.1,29.74,SW,225,3.1,3.1,50,0.04,,---,0.04,VWS V14.01,2013-03-12 00:54:00,
2013-03-11 20:59:00,46.9,34.6,29.74,NNE,22,2.7,2.7,62,0.04,,---,0.04,VWS V14.01,2013-03-12 00:59:00,
2013-03-11 21:04:00,46.2,38.4,29.74,NW,315,4.9,4.9,74,0.04,,---,0.04,VWS V14.01,2013-03-12 01:04:00,
2013-03-11 21:09:00,45.9,40.7,29.76,WNW,292,8.3,8.3,82,0.08,,---,0.08,VWS V14.01,2013-03-12 01:09:00,
2013-03-11 21:14:00,45.9,41.6,29.76,WNW,292,0.0,0.0,85,0.12,,---,0.12,VWS V14.01,2013-03-12 01:14:00,
2013-03-11 21:19:00,45.9,42.2,29.76,SE,135,0.0,5.4,87,0.12,,---,0.12,VWS V14.01,2013-03-12 01:19:00,
2013-03-11 21:24:00,45.9,42.5,29.76,WNW,292,2.2,3.1,88,0.16,,---,0.16,VWS V14.01,2013-03-12 01:24:00,
2013-03-11 21:29:00,45.7,42.9,29.76,SW,225,0.0,0.0,90,0.20,,---,0.20,VWS V14.01,2013-03-12 01:29:00,
2013-03-11 21:34:00,45.9,44.0,29.76,SW,225,4.0,5.8,93,0.20,,---,0.20,VWS V14.01,2013-03-12 01:34:00,
2013-03-11 21:39:00,46.0,44.4,29.76,NW,315,3.1,3.1,94,0.21,,---,0.25,VWS V14.01,2013-03-12 01:39:00,
2013-03-11 21:44:00,46.2,44.9,29.76,NW,315,4.9,5.8,95,0.21,,---,0.25,VWS V14.01,2013-03-12 01:44:00,
2013-03-11 21:49:00,46.4,45.0,29.76,SW,225,2.2,2.7,95,0.24,,---,0.28,VWS V14.01,2013-03-12 01:49:00,
2013-03-11 21:54:00,46.4,45.3,29.76,WSW,248,3.6,3.6,96,0.24,,---,0.28,VWS V14.01,2013-03-12 01:54:00,
2013-03-11 21:59:00,46.4,45.3,29.76,NW,315,0.0,2.7,96,0.24,,---,0.28,VWS V14.01,2013-03-12 01:59:00,
2013-03-11 22:04:00,46.4,45.6,29.76,South,180,0.0,3.1,97,0.29,,---,0.33,VWS V14.01,2013-03-12 02:04:00,
2013-03-11 22:09:00,46.4,45.3,29.76,North,0,0.0,0.0,96,0.25,,---,0.33,VWS V14.01,2013-03-12 02:09:00,
2013-03-11 22:14:00,46.4,45.3,29.76,NW,315,2.7,2.7,96,0.21,,---,0.33,VWS V14.01,2013-03-12 02:14:00,
2013-03-11 22:19:00,46.9,45.3,29.76,SW,225,0.0,0.0,94,0.25,,---,0.37,VWS V14.01,2013-03-12 02:19:00,
2013-03-11 22:24:00,47.1,45.2,29.76,WNW,292,0.0,0.0,93,0.21,,---,0.37,VWS V14.01,2013-03-12 02:24:00,
2013-03-11 22:29:00,47.1,45.2,29.76,West,270,0.0,0.0,93,0.21,,---,0.37,VWS V14.01,2013-03-12 02:29:00,
2013-03-11 22:34:00,47.1,45.2,29.76,SW,225,0.0,0.0,93,0.21,,---,0.41,VWS V14.01,2013-03-12 02:34:00,
2013-03-11 22:39:00,47.1,45.5,29.76,South,180,4.9,4.9,94,0.16,,---,0.41,VWS V14.01,2013-03-12 02:39:00,
2013-03-11 22:44:00,47.1,45.5,29.76,WSW,248,4.5,4.5,94,0.16,,---,0.41,VWS V14.01,2013-03-12 02:44:00,
2013-03-11 22:49:00,46.8,45.1,29.76,NW,315,5.8,5.8,94,0.17,,---,0.45,VWS V14.01,2013-03-12 02:49:00,
2013-03-11 22:54:00,45.7,44.1,29.79,SSW,202,4.9,4.9,94,0.17,,---,0.45,VWS V14.01,2013-03-12 02:54:00,
2013-03-11 22:59:00,45.0,43.3,29.79,WNW,292,3.1,4.0,94,0.17,,---,0.45,VWS V14.01,2013-03-12 02:59:00,
2013-03-11 23:04:00,44.6,43.3,29.79,SSW,202,0.0,0.0,95,0.12,,---,0.45,VWS V14.01,2013-03-12 03:04:00,
2013-03-11 23:09:00,44.4,43.1,29.79,WNW,292,2.7,5.4,95,0.12,,---,0.45,VWS V14.01,2013-03-12 03:09:00,
2013-03-11 23:14:00,44.1,42.7,29.79,NW,315,2.7,3.6,95,0.12,,---,0.45,VWS V14.01,2013-03-12 03:14:00,
2013-03-11 23:19:00,43.9,42.5,29.79,South,180,3.1,7.6,95,0.08,,---,0.45,VWS V14.01,2013-03-12 03:19:00,
2013-03-11 23:24:00,43.7,42.4,29.79,SW,225,4.0,4.0,95,0.08,,---,0.45,VWS V14.01,2013-03-12 03:24:00,
2013-03-11 23:29:00,43.5,42.2,29.79,West,270,0.0,0.0,95,0.08,,---,0.45,VWS V14.01,2013-03-12 03:29:00,
2013-03-11 23:34:00,43.3,42.0,29.79,NW,315,0.0,2.7,95,0.08,,---,0.49,VWS V14.01,2013-03-12 03:34:00,
2013-03-11 23:39:00,43.2,41.8,29.79,West,270,0.0,0.0,95,0.08,,---,0.49,VWS V14.01,2013-03-12 03:39:00,
2013-03-11 23:44:00,43.0,41.7,29.79,NW,315,3.6,5.8,95,0.08,,---,0.49,VWS V14.01,2013-03-12 03:44:00,
2013-03-11 23:49:00,43.0,41.7,29.79,SW,225,2.7,3.6,95,0.04,,---,0.49,VWS V14.01,2013-03-12 03:49:00,
2013-03-11 23:54:00,42.8,41.5,29.79,NW,315,3.6,3.6,95,0.04,,---,0.49,VWS V14.01,2013-03-12 03:54:00,
2013-03-11 23:59:00,42.4,41.4,29.79,South,180,3.6,6.3,96,0.04,,---,0.49,VWS V14.01,2013-03-12 03:59:00,